Time;durP1;ratioP1;P1;durP2;ratioP2;P2;SDS_P1;SDS_P2;PMS_P1;PMS_P2;Temp;Humidity;BMP_temperature;BMP_pressure;BME280_temperature;BME280_humidity;BME280_pressure;Samples;Min_cycle;Max_cycle;Signal;HPM_P1;HPM_P2
2021/03/19 00:04:14;;;;;;;1999.90;999.90;;;;;;;4.02;73.70;101409.53;15781293;28;20363;-74
2021/03/19 00:11:45;;;;;;;1999.90;999.90;;;;;;;3.63;75.56;101397.25;15762275;28;20044;-74
2021/03/19 00:19:19;;;;;;;1999.90;999.90;;;;;;;3.30;76.85;101385.53;15757152;28;20044;-74
2021/03/19 00:26:50;;;;;;;1999.90;999.90;;;;;;;3.33;77.08;101373.13;15774523;28;20060;-75
2021/03/19 00:34:22;;;;;;;1999.90;999.90;;;;;;;3.27;77.43;101382.47;15749964;28;20041;-73
2021/03/19 00:41:54;;;;;;;1999.90;999.90;;;;;;;3.32;76.75;101376.97;15768675;28;20044;-74
2021/03/19 00:49:27;;;;;;;1999.90;999.90;;;;;;;3.68;75.41;101381.56;15736596;28;20067;-75
2021/03/19 00:56:59;;;;;;;1999.90;999.90;;;;;;;3.65;74.21;101397.84;15746633;28;20040;-74
2021/03/19 01:04:32;;;;;;;1999.90;999.90;;;;;;;4.03;73.92;101407.59;15764969;28;20068;-74
2021/03/19 01:12:04;;;;;;;1999.90;999.90;;;;;;;3.94;74.40;101417.50;15776211;28;20526;-74
2021/03/19 01:19:37;;;;;;;1999.90;999.90;;;;;;;3.73;75.07;101422.13;15713071;28;20386;-74
2021/03/19 01:27:08;;;;;;;1999.90;999.90;;;;;;;3.44;76.98;101430.84;15755323;28;20049;-74
2021/03/19 01:34:41;;;;;;;1999.90;999.90;;;;;;;3.60;75.88;101440.03;15745710;28;20037;-74
2021/03/19 01:42:12;;;;;;;1999.90;999.90;;;;;;;3.65;75.70;101447.50;15775265;28;20158;-74
2021/03/19 01:50:22;;;;;;;1999.90;999.90;;;;;;;4.12;74.38;101443.81;15755909;28;20055;-75
2021/03/19 01:58:30;;;;;;;1999.90;999.90;;;;;;;4.14;74.30;101434.13;15770235;28;20045;-75
2021/03/19 02:06:39;;;;;;;1999.90;999.90;;;;;;;4.07;73.81;101435.53;15752974;28;20108;-74
2021/03/19 02:14:48;;;;;;;1999.90;999.90;;;;;;;3.94;74.37;101440.44;15746296;28;20051;-75
2021/03/19 02:22:58;;;;;;;1999.90;999.90;;;;;;;3.90;75.05;101447.59;15756516;28;20074;-74
2021/03/19 02:31:09;;;;;;;1999.90;999.90;;;;;;;3.71;75.23;101443.66;15802822;28;20151;-74
2021/03/19 02:38:41;;;;;;;1999.90;999.90;;;;;;;3.39;75.37;101452.06;15752786;28;20056;-73
2021/03/19 02:46:13;;;;;;;1999.90;999.90;;;;;;;3.49;75.21;101457.63;15784434;28;20337;-74
2021/03/19 02:53:45;;;;;;;1999.90;999.90;;;;;;;3.29;75.28;101458.34;15749572;28;20576;-74
2021/03/19 03:01:17;;;;;;;1999.90;999.90;;;;;;;3.32;75.40;101466.06;15783940;28;20079;-74
2021/03/19 03:08:49;;;;;;;1999.90;999.90;;;;;;;3.26;75.75;101466.34;15741581;28;20072;-75
2021/03/19 03:16:22;;;;;;;1999.90;999.90;;;;;;;3.49;74.96;101465.91;15765447;28;20052;-75
2021/03/19 03:23:55;;;;;;;1999.90;999.90;;;;;;;3.30;75.42;101467.44;15723815;28;20041;-75
2021/03/19 03:31:27;;;;;;;1999.90;999.90;;;;;;;3.23;74.66;101484.25;15782320;28;20050;-73
2021/03/19 03:38:59;;;;;;;1999.90;999.90;;;;;;;2.95;76.54;101490.09;15762409;28;20135;-72
2021/03/19 03:46:31;;;;;;;1999.90;999.90;;;;;;;2.83;77.24;101488.34;15723413;28;20049;-73
2021/03/19 03:54:05;;;;;;;1999.90;999.90;;;;;;;2.74;77.04;101492.69;15780110;28;20052;-73
2021/03/19 04:01:38;;;;;;;1999.90;999.90;;;;;;;2.82;76.40;101494.13;15762868;28;20504;-73
2021/03/19 04:09:10;;;;;;;1999.90;999.90;;;;;;;2.52;78.32;101492.75;15758273;28;20085;-74
2021/03/19 04:16:42;;;;;;;1999.90;999.90;;;;;;;2.83;77.49;101493.88;15764939;28;20080;-74
2021/03/19 04:24:14;;;;;;;1999.90;999.90;;;;;;;3.06;76.24;101503.69;15760544;28;20183;-74
2021/03/19 04:31:46;;;;;;;1999.90;999.90;;;;;;;3.35;75.84;101506.94;15749296;28;20450;-74
2021/03/19 04:39:23;;;;;;;1999.90;999.90;;;;;;;3.33;76.23;101506.34;15740253;28;20114;-73
2021/03/19 04:46:54;;;;;;;1999.90;999.90;;;;;;;3.35;75.88;101522.69;15737249;28;20195;-72
2021/03/19 04:54:28;;;;;;;1999.90;999.90;;;;;;;3.02;76.17;101530.16;15756994;28;20433;-73
2021/03/19 05:02:00;;;;;;;1999.90;999.90;;;;;;;2.70;76.56;101540.31;15777917;28;20048;-73
2021/03/19 05:09:33;;;;;;;1999.90;999.90;;;;;;;2.53;77.05;101552.28;15767381;22;20042;-63
2021/03/19 05:17:05;;;;;;;1999.90;999.90;;;;;;;2.44;76.40;101556.56;15738063;28;20131;-64
2021/03/19 05:24:37;;;;;;;1999.90;999.90;;;;;;;2.45;76.58;101565.66;15679022;28;20079;-63
2021/03/19 05:32:09;;;;;;;1999.90;999.90;;;;;;;2.25;77.46;101556.06;15708629;28;20044;-63
2021/03/19 05:39:41;;;;;;;1999.90;999.90;;;;;;;2.35;77.03;101563.63;15697631;28;20115;-63
2021/03/19 05:47:15;;;;;;;1999.90;999.90;;;;;;;2.64;76.61;101564.25;15692160;28;20049;-63
2021/03/19 05:54:49;;;;;;;1999.90;999.90;;;;;;;2.55;77.36;101566.63;15701897;28;20037;-63
2021/03/19 06:02:24;;;;;;;1999.90;999.90;;;;;;;2.75;76.84;101577.03;15677648;28;20120;-63
2021/03/19 06:10:16;;;;;;;1999.90;999.90;;;;;;;3.09;75.90;101576.78;15676043;28;20663;-62
2021/03/19 06:17:49;;;;;;;1999.90;999.90;;;;;;;3.41;74.68;101582.31;15701379;28;20051;-65
2021/03/19 06:25:25;;;;;;;1999.90;999.90;;;;;;;3.68;73.33;101599.63;15703242;28;20045;-64
2021/03/19 06:33:03;;;;;;;1999.90;999.90;;;;;;;4.29;71.66;101608.25;15742263;28;20412;-64
2021/03/19 06:40:38;;;;;;;1999.90;999.90;;;;;;;3.12;73.60;101610.19;15713739;28;20271;-65
2021/03/19 06:48:29;;;;;;;1999.90;999.90;;;;;;;3.64;73.46;101628.00;15739788;28;20086;-65
2021/03/19 06:56:16;;;;;;;1999.90;999.90;;;;;;;3.67;73.71;101638.53;15765439;28;20052;-65
2021/03/19 07:04:11;;;;;;;1999.90;999.90;;;;;;;5.25;68.47;101645.59;15759812;28;20044;-65
2021/03/19 07:11:56;;;;;;;1999.90;999.90;;;;;;;4.67;69.40;101655.94;15737625;28;20101;-63
2021/03/19 07:19:40;;;;;;;1999.90;999.90;;;;;;;4.45;68.78;101671.88;15750472;28;20131;-64
2021/03/19 07:27:27;;;;;;;1999.90;999.90;;;;;;;4.22;70.80;101686.94;15746648;28;20059;-65
2021/03/19 07:35:11;;;;;;;1999.90;999.90;;;;;;;4.02;71.87;101693.19;15745175;28;20040;-69
2021/03/19 07:42:55;;;;;;;;;;;;;;;4.05;71.50;101687.09;15727528;28;20056;-65
2021/03/19 07:50:37;;;;;;;1999.90;999.90;;;;;;;4.60;70.15;101703.19;15744319;28;19920;-65
2021/03/19 07:58:28;;;;;;;1999.90;999.90;;;;;;;4.82;70.75;101711.31;15726883;28;20578;-62
2021/03/19 08:06:06;;;;;;;1999.90;999.90;;;;;;;5.32;67.99;101707.03;15742592;28;20048;-64
2021/03/19 08:13:51;;;;;;;1999.90;999.90;;;;;;;5.86;69.59;101719.56;15743059;28;20501;-64
2021/03/19 08:21:31;;;;;;;1999.90;999.90;;;;;;;6.49;66.18;101731.16;15746853;28;20460;-66
2021/03/19 08:29:15;;;;;;;1999.90;999.90;;;;;;;6.88;64.99;101739.63;15742277;28;20044;-63
2021/03/19 08:36:49;;;;;;;1999.90;999.90;;;;;;;8.22;59.52;101761.50;15698979;28;20052;-64
2021/03/19 08:44:25;;;;;;;1999.90;999.90;;;;;;;7.37;61.74;101761.03;15715026;28;20045;-63
2021/03/19 08:51:58;;;;;;;1999.90;999.90;;;;;;;5.90;65.87;101763.06;15703905;28;20455;-64
2021/03/19 08:59:51;;;;;;;1999.90;999.90;;;;;;;6.60;64.91;101768.84;15667681;28;20045;-63
2021/03/19 09:07:27;;;;;;;1999.90;999.90;;;;;;;5.43;68.91;101774.34;15669669;28;20053;-64
2021/03/19 09:15:27;;;;;;;1999.90;999.90;;;;;;;5.87;69.35;101763.59;15703533;28;20072;-63
2021/03/19 09:23:22;;;;;;;1999.90;999.90;;;;;;;5.96;68.46;101772.22;15674235;28;20095;-63
2021/03/19 09:30:59;;;;;;;1999.90;999.90;;;;;;;5.34;69.31;101768.50;15699697;28;20037;-65
2021/03/19 09:38:41;;;;;;;1999.90;999.90;;;;;;;5.19;69.73;101777.56;15707277;28;20059;-65
2021/03/19 09:46:18;;;;;;;1999.90;999.90;;;;;;;5.42;69.90;101790.13;15711615;28;20469;-65
2021/03/19 09:53:49;;;;;;;1999.90;999.90;;;;;;;5.68;69.65;101782.69;15737678;28;20044;-64
2021/03/19 10:01:34;;;;;;;1999.90;999.90;;;;;;;5.32;71.19;101798.38;15720313;28;20144;-65
2021/03/19 10:09:16;;;;;;;1999.90;999.90;;;;;;;5.96;70.05;101797.16;15737588;28;20087;-63
2021/03/19 10:16:49;;;;;;;1999.90;999.90;;;;;;;5.53;70.82;101799.28;15747438;28;20139;-65
2021/03/19 10:24:26;;;;;;;1999.90;999.90;;;;;;;6.20;67.75;101791.88;15704018;28;20119;-62
2021/03/19 10:32:01;;;;;;;1999.90;999.90;;;;;;;7.97;63.47;101792.31;15685354;28;20540;-64
2021/03/19 10:39:38;;;;;;;1999.90;999.90;;;;;;;7.85;63.12;101794.63;15685335;28;20072;-63
2021/03/19 10:47:15;;;;;;;1999.90;999.90;;;;;;;8.51;60.71;101788.53;15685304;28;20087;-64
2021/03/19 10:54:49;;;;;;;1999.90;999.90;;;;;;;7.86;62.17;101783.22;15667677;28;20506;-66
2021/03/19 11:02:25;;;;;;;1999.90;999.90;;;;;;;7.24;63.28;101791.09;15683963;28;20082;-66
2021/03/19 11:10:04;;;;;;;1999.90;999.90;;;;;;;6.46;65.05;101795.47;15684127;28;20081;-63
2021/03/19 11:17:36;;;;;;;1999.90;999.90;;;;;;;6.32;66.00;101784.94;15665996;28;20053;-64
2021/03/19 11:25:24;;;;;;;1999.90;999.90;;;;;;;11.07;51.91;101784.44;15683135;28;20219;-64
2021/03/19 11:33:05;;;;;;;1999.90;999.90;;;;;;;11.80;47.02;101784.25;15682937;28;20049;-64
2021/03/19 11:40:40;;;;;;;1999.90;999.90;;;;;;;8.73;53.87;101788.84;15655548;28;20052;-65
2021/03/19 11:48:17;;;;;;;1999.90;999.90;;;;;;;6.89;60.79;101802.34;15662277;28;20041;-65
2021/03/19 11:55:51;;;;;;;1999.90;999.90;;;;;;;11.10;51.56;101817.31;15679647;28;20102;-62
2021/03/19 12:03:30;;;;;;;1999.90;999.90;;;;;;;13.38;46.95;101826.88;15662032;28;20133;-63
2021/03/19 12:11:03;;;;;;;1999.90;999.90;;;;;;;14.72;43.14;101814.72;15680542;28;20172;-63
2021/03/19 12:18:36;;;;;;;1999.90;999.90;;;;;;;8.52;52.13;101821.63;15661286;28;20044;-63
2021/03/19 12:26:07;;;;;;;1999.90;999.90;;;;;;;8.11;54.16;101823.88;15679389;28;20131;-63
2021/03/19 12:33:40;;;;;;;1999.90;999.90;;;;;;;11.20;44.64;101825.50;15678667;28;20119;-62
2021/03/19 12:41:12;;;;;;;1999.90;999.90;;;;;;;12.93;41.17;101824.22;15675964;28;20076;-64
2021/03/19 12:48:44;;;;;;;1999.90;999.90;;;;;;;9.93;46.32;101836.91;15676572;28;20060;-63
2021/03/19 12:56:16;;;;;;;1999.90;999.90;;;;;;;7.39;48.60;101809.59;15659250;28;20051;-64
2021/03/19 13:03:50;;;;;;;1999.90;999.90;;;;;;;7.18;50.73;101822.75;15676503;28;20048;-63
2021/03/19 13:11:21;;;;;;;1999.90;999.90;;;;;;;7.17;49.09;101834.97;15675971;28;20056;-61
2021/03/19 13:18:54;;;;;;;1999.90;999.90;;;;;;;8.13;48.06;101838.34;15675712;28;20098;-64
2021/03/19 13:26:25;;;;;;;1999.90;999.90;;;;;;;6.65;47.73;101835.38;15675139;28;20147;-64
2021/03/19 13:33:58;;;;;;;1999.90;999.90;;;;;;;7.10;46.88;101841.94;15675428;28;20354;-63
2021/03/19 13:41:31;;;;;;;1999.90;999.90;;;;;;;10.01;41.24;101841.81;15673892;28;20493;-62
2021/03/19 13:49:04;;;;;;;;;;;;;;;10.28;40.45;101848.69;15679991;28;20187;-63
2021/03/19 13:56:37;;;;;;;1999.90;999.90;;;;;;;8.39;44.12;101856.50;15687302;28;19927;-62
2021/03/19 14:04:10;;;;;;;1999.90;999.90;;;;;;;7.95;45.64;101852.94;15660492;28;20076;-63
2021/03/19 14:11:42;;;;;;;1999.90;999.90;;;;;;;7.18;48.11;101855.22;15689532;28;20079;-62
2021/03/19 14:19:16;;;;;;;1999.90;999.90;;;;;;;6.81;48.11;101858.38;15707736;28;20051;-62
2021/03/19 14:26:47;;;;;;;;;;;;;;;7.00;49.18;101851.13;15749352;28;20055;-64
2021/03/19 14:34:20;;;;;;;1999.90;999.90;;;;;;;5.25;53.74;101872.53;15708565;28;20299;-62
2021/03/19 14:41:51;;;;;;;1999.90;999.90;;;;;;;5.79;53.45;101874.94;15704920;28;20037;-63
2021/03/19 14:49:24;;;;;;;1999.90;999.90;;;;;;;5.76;52.57;101892.94;15708900;28;20052;-65
2021/03/19 14:56:56;;;;;;;1999.90;999.90;;;;;;;4.98;55.65;101891.16;15690794;28;20041;-62
2021/03/19 15:04:28;;;;;;;1999.90;999.90;;;;;;;4.62;55.37;101894.53;15704060;28;20303;-64
2021/03/19 15:12:00;;;;;;;1999.90;999.90;;;;;;;4.63;54.21;101896.19;15720507;28;20124;-64
2021/03/19 15:19:32;;;;;;;1999.90;999.90;;;;;;;4.93;55.12;101900.28;15745671;28;20409;-65
2021/03/19 15:27:06;;;;;;;1999.90;999.90;;;;;;;5.11;54.82;101915.63;15710836;28;20064;-66
2021/03/19 15:34:39;;;;;;;1999.90;999.90;;;;;;;4.69;51.80;101921.09;15694378;28;20045;-64
2021/03/19 15:42:10;;;;;;;1999.90;999.90;;;;;;;4.32;48.49;101917.22;15708660;28;20037;-62
2021/03/19 15:49:43;;;;;;;1999.90;999.90;;;;;;;4.09;50.07;101922.22;15681315;28;20107;-62
2021/03/19 15:57:14;;;;;;;1999.90;999.90;;;;;;;3.90;50.24;101917.06;15690690;28;20094;-63
2021/03/19 16:04:47;;;;;;;1999.90;999.90;;;;;;;3.86;51.83;101934.41;15694156;28;20104;-63
2021/03/19 16:12:19;;;;;;;1999.90;999.90;;;;;;;4.20;51.43;101940.59;15669702;28;20045;-64
2021/03/19 16:19:51;;;;;;;1999.90;999.90;;;;;;;4.60;50.27;101942.91;15686747;28;20440;-60
2021/03/19 16:27:23;;;;;;;1999.90;999.90;;;;;;;4.27;42.11;101949.47;15678743;28;20049;-64
2021/03/19 16:34:55;;;;;;;1999.90;999.90;;;;;;;3.67;43.60;101958.75;15672523;28;20048;-63
2021/03/19 16:42:28;;;;;;;1999.90;999.90;;;;;;;3.51;43.03;101963.22;15696080;28;20417;-65
2021/03/19 16:50:00;;;;;;;1999.90;999.90;;;;;;;3.27;40.44;101992.16;15680912;28;20059;-58
2021/03/19 16:57:31;;;;;;;1999.90;999.90;;;;;;;3.11;39.95;101988.31;15719403;28;20055;-60
2021/03/19 17:05:04;;;;;;;1999.90;999.90;;;;;;;3.10;40.14;102001.25;15695165;28;20091;-63
2021/03/19 17:12:36;;;;;;;1999.90;999.90;;;;;;;2.95;40.42;102006.53;15703832;28;20041;-64
2021/03/19 17:20:11;;;;;;;1999.90;999.90;;;;;;;2.89;41.20;102015.81;15665151;28;20414;-65
2021/03/19 17:27:43;;;;;;;1999.90;999.90;;;;;;;2.89;41.07;102033.19;15699921;23;20104;-82
2021/03/19 17:35:18;;;;;;;1999.90;999.90;;;;;;;2.76;42.64;102036.28;15734168;23;20134;-63
2021/03/19 17:42:50;;;;;;;1999.90;999.90;;;;;;;2.73;43.06;102039.53;15740380;28;20037;-62
2021/03/19 17:50:25;;;;;;;1999.90;999.90;;;;;;;2.73;43.89;102052.50;15734689;28;20106;-63
2021/03/19 17:57:57;;;;;;;1999.90;999.90;;;;;;;2.41;44.80;102066.78;15717082;28;20040;-60
2021/03/19 18:05:30;;;;;;;1999.90;999.90;;;;;;;2.29;44.25;102088.88;15734365;28;20056;-62
2021/03/19 18:13:02;;;;;;;;;;;;;;;2.15;42.77;102084.69;15735413;28;20045;-64
2021/03/19 18:20:34;;;;;;;1999.90;999.90;;;;;;;1.98;45.06;102108.53;15735424;28;19967;-62
2021/03/19 18:28:06;;;;;;;1999.90;999.90;;;;;;;1.85;47.08;102106.06;15716545;28;20113;-60
2021/03/19 18:35:39;;;;;;;1999.90;999.90;;;;;;;1.61;48.26;102121.75;15725084;28;20051;-62
2021/03/19 18:43:13;;;;;;;1999.90;999.90;;;;;;;1.23;49.72;102136.78;15719343;28;20512;-62
2021/03/19 18:50:47;;;;;;;1999.90;999.90;;;;;;;1.18;51.59;102144.06;15754361;28;20044;-63
2021/03/19 18:58:21;;;;;;;1999.90;999.90;;;;;;;1.20;53.86;102166.66;15745803;28;20056;-65
2021/03/19 19:05:54;;;;;;;1999.90;999.90;;;;;;;1.27;54.32;102171.00;15744047;28;20050;-65
2021/03/19 19:13:27;;;;;;;1999.90;999.90;;;;;;;0.96;54.31;102183.09;15743742;28;20160;-65
2021/03/19 19:20:59;;;;;;;1999.90;999.90;;;;;;;0.94;55.36;102193.50;15724809;28;20410;-64
2021/03/19 19:28:34;;;;;;;1999.90;999.90;;;;;;;0.92;56.19;102203.03;15724840;28;20127;-61
2021/03/19 19:36:10;;;;;;;1999.90;999.90;;;;;;;1.00;56.59;102209.03;15742525;28;20131;-60
2021/03/19 19:43:43;;;;;;;1999.90;999.90;;;;;;;0.50;56.87;102206.50;15736321;28;20036;-60
2021/03/19 19:51:16;;;;;;;1999.90;999.90;;;;;;;0.82;56.83;102211.81;15740991;28;20107;-62
2021/03/19 19:58:51;;;;;;;1999.90;999.90;;;;;;;0.56;58.23;102222.09;15740836;28;20052;-60
2021/03/19 20:06:24;;;;;;;1999.90;999.90;;;;;;;0.62;58.88;102231.31;15722724;28;20719;-62
2021/03/19 20:13:56;;;;;;;;;;;;;;;0.79;58.87;102215.88;15739964;28;20127;-62
2021/03/19 20:21:32;;;;;;;1999.90;999.90;;;;;;;0.52;60.08;102239.25;15722004;28;19920;-60
2021/03/19 20:29:06;;;;;;;1999.90;999.90;;;;;;;0.49;59.32;102237.81;15722409;28;20055;-62
2021/03/19 20:36:41;;;;;;;1999.90;999.90;;;;;;;0.69;59.42;102258.72;15722539;28;20052;-59
2021/03/19 20:44:13;;;;;;;1999.90;999.90;;;;;;;0.31;60.47;102256.16;15739293;28;20056;-59
2021/03/19 20:51:47;;;;;;;1999.90;999.90;;;;;;;0.40;60.89;102263.88;15738282;28;20079;-60
2021/03/19 20:59:22;;;;;;;1999.90;999.90;;;;;;;0.31;60.84;102275.41;15738609;28;20041;-61
2021/03/19 21:06:57;;;;;;;1999.90;999.90;;;;;;;0.40;60.79;102274.88;15737645;28;20200;-58
2021/03/19 21:14:29;;;;;;;1999.90;999.90;;;;;;;0.39;60.87;102267.72;15736506;28;20497;-63
2021/03/19 21:22:03;;;;;;;1999.90;999.90;;;;;;;0.38;62.11;102289.91;15737035;28;20048;-58
2021/03/19 21:29:35;;;;;;;1999.90;999.90;;;;;;;0.33;62.66;102303.50;15735782;28;20052;-60
2021/03/19 21:37:13;;;;;;;1999.90;999.90;;;;;;;0.49;61.78;102300.97;15717514;28;20118;-63
2021/03/19 21:44:46;;;;;;;1999.90;999.90;;;;;;;0.14;62.79;102305.34;15736713;28;20049;-63
2021/03/19 21:52:18;;;;;;;1999.90;999.90;;;;;;;0.40;62.11;102318.81;15737342;28;20087;-61
2021/03/19 21:59:51;;;;;;;1999.90;999.90;;;;;;;0.53;62.01;102318.72;15735222;28;20123;-63
2021/03/19 22:07:23;;;;;;;1999.90;999.90;;;;;;;0.28;62.96;102326.13;15712248;28;20103;-62
2021/03/19 22:14:54;;;;;;;1999.90;999.90;;;;;;;0.66;61.73;102338.88;15745753;28;20123;-62
2021/03/19 22:22:27;;;;;;;1999.90;999.90;;;;;;;0.32;62.69;102338.34;15728118;28;20274;-63
2021/03/19 22:29:59;;;;;;;1999.90;999.90;;;;;;;0.30;62.98;102348.69;15727369;28;20040;-62
2021/03/19 22:37:31;;;;;;;1999.90;999.90;;;;;;;0.49;62.27;102335.84;15743565;28;20044;-62
2021/03/19 22:45:04;;;;;;;1999.90;999.90;;;;;;;0.22;63.09;102347.09;15741450;28;20506;-62
2021/03/19 22:52:36;;;;;;;1999.90;999.90;;;;;;;0.23;63.05;102334.22;15741204;28;20131;-62
2021/03/19 23:00:14;;;;;;;1999.90;999.90;;;;;;;0.31;62.63;102322.91;15723586;28;20100;-62
2021/03/19 23:07:47;;;;;;;1999.90;999.90;;;;;;;0.22;62.65;102332.53;15741204;28;20171;-62
2021/03/19 23:15:18;;;;;;;1999.90;999.90;;;;;;;0.06;63.49;102339.41;15741985;28;20040;-61
2021/03/19 23:22:51;;;;;;;1999.90;999.90;;;;;;;0.01;63.18;102336.50;15740990;28;20491;-61
2021/03/19 23:30:26;;;;;;;1999.90;999.90;;;;;;;-0.13;63.73;102346.72;15742050;28;20139;-60
2021/03/19 23:37:58;;;;;;;1999.90;999.90;;;;;;;0.01;63.28;102342.00;15690946;28;20118;-60
2021/03/19 23:45:31;;;;;;;1999.90;999.90;;;;;;;0.13;62.40;102345.69;15723720;28;20041;-57
2021/03/19 23:53:05;;;;;;;1999.90;999.90;;;;;;;0.09;63.29;102343.59;15734614;28;20414;-58
